LECO/LCG METAR and TAF weather

Enter ICAO airport designator
Station Type Date Time Source
LECO METAR 2021/09/24 02:30 UTC NOAA

LECO 240230Z AUTO 00000KT 9999 FEW029 15/15 Q1016


Station Type Date Time Source
LECO Decoded METAR 2021/09/24 02:30 UTC NOAA

La Coruna / Alvedro, Spain (LECO) 43-18N 008-23W 103M
Sep 23, 2021 - 10:30 PM EDT / 2021.09.24 0230 UTC
Wind: Calm:0
Visibility: greater than 7 mile(s):0
Sky conditions: mostly clear
Temperature: 59 F (15 C)
Dew Point: 59 F (15 C)
Relative Humidity: 100%
Pressure (altimeter): 30.00 in. Hg (1016 hPa)
ob: LECO 240230Z AUTO 00000KT 9999 FEW029 15/15 Q1016
cycle: 2

Station Type Date Time Source
LECO TAF 2021/09/24 03:27 UTC NOAA

TAF LECO 240200Z 2403/2503 04008KT 9999 FEW030 TX26/2415Z TN15/2406Z PROB40
TEMPO 2403/2407 3000 BR BKN010 PROB40
TEMPO 2416/2421 27010KT 3000 RA SHRA BKN010 SCT030TCU PROB30
TEMPO 2416/2421 1500 TSRA +SHRA SCT030CB PROB40
TEMPO 2421/2424 3000 BR BKN010

Example: see airport list